sensor_id;sensor_type;location;lat;lon;timestamp;pressure;altitude;pressure_sealevel;temperature;humidity
10921;BME280;5513;50.580;8.818;2023-08-21T00:00:43;99623.72;;;23.42;100.00
10921;BME280;5513;50.580;8.818;2023-08-21T00:03:30;99624.91;;;23.39;100.00
10921;BME280;5513;50.580;8.818;2023-08-21T00:06:16;99625.25;;;23.28;100.00
10921;BME280;5513;50.580;8.818;2023-08-21T00:09:05;99624.25;;;23.29;100.00
10921;BME280;5513;50.580;8.818;2023-08-21T00:11:52;99628.47;;;23.32;100.00
10921;BME280;5513;50.580;8.818;2023-08-21T00:14:38;99627.44;;;23.33;100.00
10921;BME280;5513;50.580;8.818;2023-08-21T00:17:25;99621.72;;;23.28;100.00
10921;BME280;5513;50.580;8.818;2023-08-21T00:20:12;99621.88;;;23.34;100.00
10921;BME280;5513;50.580;8.818;2023-08-21T00:22:59;99624.75;;;23.33;100.00
10921;BME280;5513;50.580;8.818;2023-08-21T00:25:47;99625.94;;;23.30;100.00
10921;BME280;5513;50.580;8.818;2023-08-21T00:28:34;99623.03;;;23.24;100.00
10921;BME280;5513;50.580;8.818;2023-08-21T00:31:21;99619.66;;;23.13;100.00
10921;BME280;5513;50.580;8.818;2023-08-21T00:34:08;99621.19;;;23.08;100.00
10921;BME280;5513;50.580;8.818;2023-08-21T00:36:55;99622.19;;;22.99;100.00
10921;BME280;5513;50.580;8.818;2023-08-21T00:39:42;99623.53;;;23.03;100.00
10921;BME280;5513;50.580;8.818;2023-08-21T00:42:30;99617.47;;;23.09;100.00
10921;BME280;5513;50.580;8.818;2023-08-21T00:45:18;99606.13;;;23.05;100.00
10921;BME280;5513;50.580;8.818;2023-08-21T00:48:06;99612.72;;;23.03;100.00
10921;BME280;5513;50.580;8.818;2023-08-21T00:50:52;99606.97;;;23.06;100.00
10921;BME280;5513;50.580;8.818;2023-08-21T00:53:40;99608.00;;;23.05;100.00
10921;BME280;5513;50.580;8.818;2023-08-21T00:56:27;99598.03;;;22.97;100.00
10921;BME280;5513;50.580;8.818;2023-08-21T00:59:15;99609.16;;;22.94;100.00
10921;BME280;5513;50.580;8.818;2023-08-21T01:02:02;99612.53;;;22.96;100.00
10921;BME280;5513;50.580;8.818;2023-08-21T01:04:49;99616.78;;;22.99;100.00
10921;BME280;5513;50.580;8.818;2023-08-21T01:07:45;99612.41;;;22.98;100.00
10921;BME280;5513;50.580;8.818;2023-08-21T01:10:48;99612.22;;;22.91;100.00
10921;BME280;5513;50.580;8.818;2023-08-21T01:13:46;99615.19;;;22.80;100.00
10921;BME280;5513;50.580;8.818;2023-08-21T01:16:36;99624.16;;;22.80;100.00
10921;BME280;5513;50.580;8.818;2023-08-21T01:19:30;99617.06;;;22.79;100.00
10921;BME280;5513;50.580;8.818;2023-08-21T01:22:18;99628.53;;;22.81;100.00
10921;BME280;5513;50.580;8.818;2023-08-21T01:25:07;99625.16;;;22.79;100.00
10921;BME280;5513;50.580;8.818;2023-08-21T01:27:55;99626.81;;;22.72;100.00
10921;BME280;5513;50.580;8.818;2023-08-21T01:30:42;99638.81;;;22.70;100.00
10921;BME280;5513;50.580;8.818;2023-08-21T01:33:33;99649.28;;;22.73;100.00
10921;BME280;5513;50.580;8.818;2023-08-21T01:36:21;99641.66;;;22.68;100.00
10921;BME280;5513;50.580;8.818;2023-08-21T01:39:08;99644.00;;;22.63;100.00
10921;BME280;5513;50.580;8.818;2023-08-21T01:41:57;99642.34;;;22.70;100.00
10921;BME280;5513;50.580;8.818;2023-08-21T01:44:44;99649.75;;;22.60;100.00
10921;BME280;5513;50.580;8.818;2023-08-21T01:47:31;99645.34;;;22.59;100.00
10921;BME280;5513;50.580;8.818;2023-08-21T01:50:19;99644.97;;;22.54;100.00
10921;BME280;5513;50.580;8.818;2023-08-21T01:53:05;99651.34;;;22.45;100.00
10921;BME280;5513;50.580;8.818;2023-08-21T01:55:52;99651.69;;;22.42;100.00
10921;BME280;5513;50.580;8.818;2023-08-21T01:58:40;99650.16;;;22.39;100.00
10921;BME280;5513;50.580;8.818;2023-08-21T02:01:27;99650.28;;;22.30;100.00
10921;BME280;5513;50.580;8.818;2023-08-21T02:04:14;99646.19;;;22.25;100.00
10921;BME280;5513;50.580;8.818;2023-08-21T02:07:01;99645.53;;;22.23;100.00
10921;BME280;5513;50.580;8.818;2023-08-21T02:09:48;99648.84;;;22.17;100.00
10921;BME280;5513;50.580;8.818;2023-08-21T02:12:35;99647.38;;;22.23;100.00
10921;BME280;5513;50.580;8.818;2023-08-21T02:15:28;99649.22;;;22.22;100.00
10921;BME280;5513;50.580;8.818;2023-08-21T02:18:14;99652.03;;;22.13;100.00
10921;BME280;5513;50.580;8.818;2023-08-21T02:21:02;99650.19;;;22.13;100.00
10921;BME280;5513;50.580;8.818;2023-08-21T02:23:49;99650.72;;;22.17;100.00
10921;BME280;5513;50.580;8.818;2023-08-21T02:26:36;99650.91;;;22.23;100.00
10921;BME280;5513;50.580;8.818;2023-08-21T02:29:23;99642.44;;;22.10;100.00
10921;BME280;5513;50.580;8.818;2023-08-21T02:32:11;99639.41;;;22.13;100.00
10921;BME280;5513;50.580;8.818;2023-08-21T02:34:58;99645.13;;;22.10;100.00
10921;BME280;5513;50.580;8.818;2023-08-21T02:37:45;99643.88;;;22.05;100.00
10921;BME280;5513;50.580;8.818;2023-08-21T02:40:32;99645.56;;;22.06;100.00
10921;BME280;5513;50.580;8.818;2023-08-21T02:43:19;99646.94;;;22.10;100.00
10921;BME280;5513;50.580;8.818;2023-08-21T02:46:06;99643.47;;;21.99;100.00
10921;BME280;5513;50.580;8.818;2023-08-21T02:48:55;99646.19;;;21.99;100.00
10921;BME280;5513;50.580;8.818;2023-08-21T02:51:42;99649.97;;;22.07;100.00
10921;BME280;5513;50.580;8.818;2023-08-21T02:54:29;99650.66;;;22.09;100.00
10921;BME280;5513;50.580;8.818;2023-08-21T02:57:16;99643.03;;;22.04;100.00
10921;BME280;5513;50.580;8.818;2023-08-21T03:00:04;99647.34;;;21.97;100.00
10921;BME280;5513;50.580;8.818;2023-08-21T03:02:51;99652.69;;;21.89;100.00
10921;BME280;5513;50.580;8.818;2023-08-21T03:05:39;99658.16;;;21.97;100.00
10921;BME280;5513;50.580;8.818;2023-08-21T03:08:26;99656.22;;;21.89;100.00
10921;BME280;5513;50.580;8.818;2023-08-21T03:11:13;99652.69;;;21.89;100.00
10921;BME280;5513;50.580;8.818;2023-08-21T03:14:00;99652.06;;;21.95;100.00
10921;BME280;5513;50.580;8.818;2023-08-21T03:16:47;99649.84;;;21.90;100.00
10921;BME280;5513;50.580;8.818;2023-08-21T03:19:34;99658.47;;;21.94;100.00
10921;BME280;5513;50.580;8.818;2023-08-21T03:22:22;99651.22;;;21.94;100.00
10921;BME280;5513;50.580;8.818;2023-08-21T03:25:09;99648.63;;;21.85;100.00
10921;BME280;5513;50.580;8.818;2023-08-21T03:27:57;99649.41;;;21.77;100.00
10921;BME280;5513;50.580;8.818;2023-08-21T03:30:44;99655.44;;;21.71;100.00
10921;BME280;5513;50.580;8.818;2023-08-21T03:33:31;99655.44;;;21.71;100.00
10921;BME280;5513;50.580;8.818;2023-08-21T03:36:18;99650.41;;;21.76;100.00
10921;BME280;5513;50.580;8.818;2023-08-21T03:39:08;99648.25;;;21.80;100.00
10921;BME280;5513;50.580;8.818;2023-08-21T03:42:01;99656.13;;;21.73;100.00
10921;BME280;5513;50.580;8.818;2023-08-21T03:44:47;99660.69;;;21.73;100.00
10921;BME280;5513;50.580;8.818;2023-08-21T03:47:35;99659.84;;;21.72;100.00
10921;BME280;5513;50.580;8.818;2023-08-21T03:50:28;99664.41;;;21.71;100.00
10921;BME280;5513;50.580;8.818;2023-08-21T03:53:15;99659.84;;;21.72;100.00
10921;BME280;5513;50.580;8.818;2023-08-21T03:56:04;99666.13;;;21.81;100.00
10921;BME280;5513;50.580;8.818;2023-08-21T03:58:50;99661.22;;;21.76;100.00
10921;BME280;5513;50.580;8.818;2023-08-21T04:01:38;99658.84;;;21.73;100.00
10921;BME280;5513;50.580;8.818;2023-08-21T04:04:24;99662.38;;;21.74;100.00
10921;BME280;5513;50.580;8.818;2023-08-21T04:07:13;99668.97;;;21.79;100.00
10921;BME280;5513;50.580;8.818;2023-08-21T04:10:00;99670.31;;;21.75;100.00
10921;BME280;5513;50.580;8.818;2023-08-21T04:12:48;99664.75;;;21.77;100.00
10921;BME280;5513;50.580;8.818;2023-08-21T04:15:37;99662.66;;;21.70;100.00
10921;BME280;5513;50.580;8.818;2023-08-21T04:18:24;99659.13;;;21.70;100.00
10921;BME280;5513;50.580;8.818;2023-08-21T04:21:25;99654.47;;;21.80;100.00
10921;BME280;5513;50.580;8.818;2023-08-21T04:24:12;99653.59;;;21.71;100.00
10921;BME280;5513;50.580;8.818;2023-08-21T04:26:59;99660.59;;;21.82;100.00
10921;BME280;5513;50.580;8.818;2023-08-21T04:29:47;99669.19;;;21.86;100.00
10921;BME280;5513;50.580;8.818;2023-08-21T04:32:34;99662.13;;;21.85;100.00
10921;BME280;5513;50.580;8.818;2023-08-21T04:35:22;99664.69;;;21.68;100.00
10921;BME280;5513;50.580;8.818;2023-08-21T04:38:08;99656.22;;;21.63;100.00
10921;BME280;5513;50.580;8.818;2023-08-21T04:40:56;99663.47;;;21.63;100.00
10921;BME280;5513;50.580;8.818;2023-08-21T04:43:43;99666.88;;;21.65;100.00
10921;BME280;5513;50.580;8.818;2023-08-21T04:46:31;99663.69;;;21.69;100.00
10921;BME280;5513;50.580;8.818;2023-08-21T04:49:17;99659.78;;;21.64;100.00
10921;BME280;5513;50.580;8.818;2023-08-21T04:52:05;99656.31;;;21.71;100.00
10921;BME280;5513;50.580;8.818;2023-08-21T04:54:53;99665.16;;;21.64;100.00
10921;BME280;5513;50.580;8.818;2023-08-21T04:57:40;99665.53;;;21.69;100.00
10921;BME280;5513;50.580;8.818;2023-08-21T05:00:29;99679.69;;;21.71;100.00
10921;BME280;5513;50.580;8.818;2023-08-21T05:03:18;99680.34;;;21.65;100.00
10921;BME280;5513;50.580;8.818;2023-08-21T05:06:05;99677.31;;;21.68;100.00
10921;BME280;5513;50.580;8.818;2023-08-21T05:08:52;99687.25;;;21.67;100.00
10921;BME280;5513;50.580;8.818;2023-08-21T05:11:39;99682.25;;;21.73;100.00
10921;BME280;5513;50.580;8.818;2023-08-21T05:14:28;99682.25;;;21.73;100.00
10921;BME280;5513;50.580;8.818;2023-08-21T05:17:15;99681.88;;;21.67;100.00
10921;BME280;5513;50.580;8.818;2023-08-21T05:20:04;99675.22;;;21.80;100.00
10921;BME280;5513;50.580;8.818;2023-08-21T05:22:51;99682.63;;;21.78;100.00
10921;BME280;5513;50.580;8.818;2023-08-21T05:25:38;99685.16;;;21.79;100.00
10921;BME280;5513;50.580;8.818;2023-08-21T05:28:26;99684.06;;;21.90;100.00
10921;BME280;5513;50.580;8.818;2023-08-21T05:31:13;99685.44;;;21.94;100.00
10921;BME280;5513;50.580;8.818;2023-08-21T05:34:06;99689.91;;;22.03;100.00
10921;BME280;5513;50.580;8.818;2023-08-21T05:36:54;99689.06;;;22.03;100.00
10921;BME280;5513;50.580;8.818;2023-08-21T05:39:41;99692.81;;;22.10;100.00
10921;BME280;5513;50.580;8.818;2023-08-21T05:42:28;99694.56;;;22.19;100.00
10921;BME280;5513;50.580;8.818;2023-08-21T05:45:15;99700.81;;;22.19;100.00
10921;BME280;5513;50.580;8.818;2023-08-21T05:48:03;99701.34;;;22.23;100.00
10921;BME280;5513;50.580;8.818;2023-08-21T05:50:50;99699.72;;;22.30;100.00
10921;BME280;5513;50.580;8.818;2023-08-21T05:53:39;99703.63;;;22.36;100.00
10921;BME280;5513;50.580;8.818;2023-08-21T05:56:25;99696.53;;;22.35;100.00
10921;BME280;5513;50.580;8.818;2023-08-21T05:59:12;99696.19;;;22.30;100.00
10921;BME280;5513;50.580;8.818;2023-08-21T06:02:13;99695.69;;;22.34;100.00
10921;BME280;5513;50.580;8.818;2023-08-21T06:05:00;99707.03;;;22.46;100.00
10921;BME280;5513;50.580;8.818;2023-08-21T06:07:48;99704.22;;;22.55;100.00
10921;BME280;5513;50.580;8.818;2023-08-21T06:10:37;99705.03;;;22.48;100.00
10921;BME280;5513;50.580;8.818;2023-08-21T06:13:24;99704.91;;;22.57;100.00
10921;BME280;5513;50.580;8.818;2023-08-21T06:16:12;99696.38;;;22.70;100.00
10921;BME280;5513;50.580;8.818;2023-08-21T06:19:00;99701.41;;;22.65;100.00
10921;BME280;5513;50.580;8.818;2023-08-21T06:21:47;99706.16;;;22.71;100.00
10921;BME280;5513;50.580;8.818;2023-08-21T06:24:34;99696.44;;;22.87;100.00
10921;BME280;5513;50.580;8.818;2023-08-21T06:27:24;99699.78;;;22.80;100.00
10921;BME280;5513;50.580;8.818;2023-08-21T06:30:12;99694.44;;;22.89;100.00
10921;BME280;5513;50.580;8.818;2023-08-21T06:33:03;99692.28;;;23.00;100.00
10921;BME280;5513;50.580;8.818;2023-08-21T06:35:49;99699.41;;;23.09;100.00
10921;BME280;5513;50.580;8.818;2023-08-21T06:38:37;99686.06;;;23.24;100.00
10921;BME280;5513;50.580;8.818;2023-08-21T06:41:25;99700.97;;;23.36;100.00
10921;BME280;5513;50.580;8.818;2023-08-21T06:44:13;99689.97;;;23.54;100.00
10921;BME280;5513;50.580;8.818;2023-08-21T06:47:00;99688.00;;;23.73;100.00
10921;BME280;5513;50.580;8.818;2023-08-21T06:49:47;99686.31;;;23.96;100.00
10921;BME280;5513;50.580;8.818;2023-08-21T06:52:34;99689.00;;;24.04;100.00
10921;BME280;5513;50.580;8.818;2023-08-21T06:55:22;99684.56;;;24.19;100.00
10921;BME280;5513;50.580;8.818;2023-08-21T06:58:09;99681.84;;;24.36;100.00
10921;BME280;5513;50.580;8.818;2023-08-21T07:00:57;99682.09;;;24.57;100.00
10921;BME280;5513;50.580;8.818;2023-08-21T07:03:44;99685.75;;;24.80;100.00
10921;BME280;5513;50.580;8.818;2023-08-21T07:06:31;99676.97;;;24.70;100.00
10921;BME280;5513;50.580;8.818;2023-08-21T07:09:18;99673.28;;;24.94;100.00
10921;BME280;5513;50.580;8.818;2023-08-21T07:12:06;99675.44;;;25.07;100.00
10921;BME280;5513;50.580;8.818;2023-08-21T07:14:53;99673.41;;;25.09;100.00
10921;BME280;5513;50.580;8.818;2023-08-21T07:17:41;99669.84;;;25.08;100.00
10921;BME280;5513;50.580;8.818;2023-08-21T07:20:28;99675.72;;;25.43;100.00
10921;BME280;5513;50.580;8.818;2023-08-21T07:23:15;99662.97;;;25.66;100.00
10921;BME280;5513;50.580;8.818;2023-08-21T07:26:02;99666.22;;;25.70;100.00
10921;BME280;5513;50.580;8.818;2023-08-21T07:28:50;99669.78;;;25.85;100.00
10921;BME280;5513;50.580;8.818;2023-08-21T07:31:38;99670.50;;;26.32;100.00
10921;BME280;5513;50.580;8.818;2023-08-21T07:34:26;99669.75;;;26.08;100.00
10921;BME280;5513;50.580;8.818;2023-08-21T07:37:13;99671.28;;;26.25;100.00
10921;BME280;5513;50.580;8.818;2023-08-21T07:40:00;99676.06;;;26.53;100.00
10921;BME280;5513;50.580;8.818;2023-08-21T07:42:47;99669.19;;;26.72;100.00
10921;BME280;5513;50.580;8.818;2023-08-21T07:45:36;99663.00;;;26.93;100.00
10921;BME280;5513;50.580;8.818;2023-08-21T07:48:23;99659.25;;;26.94;100.00
10921;BME280;5513;50.580;8.818;2023-08-21T07:51:12;99676.03;;;26.82;100.00
10921;BME280;5513;50.580;8.818;2023-08-21T07:53:58;99672.03;;;27.00;100.00
10921;BME280;5513;50.580;8.818;2023-08-21T07:56:45;99673.28;;;27.12;100.00
10921;BME280;5513;50.580;8.818;2023-08-21T07:59:32;99668.25;;;27.52;100.00
10921;BME280;5513;50.580;8.818;2023-08-21T08:02:19;99663.31;;;27.62;100.00
10921;BME280;5513;50.580;8.818;2023-08-21T08:05:07;99665.84;;;27.42;100.00
10921;BME280;5513;50.580;8.818;2023-08-21T08:07:56;99659.47;;;27.56;100.00
10921;BME280;5513;50.580;8.818;2023-08-21T08:10:43;99666.38;;;27.74;100.00
10921;BME280;5513;50.580;8.818;2023-08-21T08:13:31;99654.88;;;27.78;100.00
10921;BME280;5513;50.580;8.818;2023-08-21T08:16:18;99660.03;;;27.66;100.00
10921;BME280;5513;50.580;8.818;2023-08-21T08:19:05;99661.84;;;27.81;100.00
10921;BME280;5513;50.580;8.818;2023-08-21T08:21:51;99661.22;;;28.13;100.00
10921;BME280;5513;50.580;8.818;2023-08-21T08:24:39;99659.19;;;28.57;100.00
10921;BME280;5513;50.580;8.818;2023-08-21T08:27:27;99657.63;;;28.82;100.00
10921;BME280;5513;50.580;8.818;2023-08-21T08:30:14;99658.47;;;28.83;100.00
10921;BME280;5513;50.580;8.818;2023-08-21T08:33:01;99653.75;;;29.04;100.00
10921;BME280;5513;50.580;8.818;2023-08-21T08:35:48;99649.97;;;28.99;100.00
10921;BME280;5513;50.580;8.818;2023-08-21T08:38:35;99647.81;;;28.88;100.00
10921;BME280;5513;50.580;8.818;2023-08-21T08:41:33;99654.09;;;28.88;100.00
10921;BME280;5513;50.580;8.818;2023-08-21T08:44:19;99648.72;;;29.01;100.00
10921;BME280;5513;50.580;8.818;2023-08-21T08:47:06;99648.50;;;29.03;100.00
10921;BME280;5513;50.580;8.818;2023-08-21T08:49:54;99646.06;;;29.34;100.00
10921;BME280;5513;50.580;8.818;2023-08-21T08:52:43;99643.50;;;29.13;100.00
10921;BME280;5513;50.580;8.818;2023-08-21T08:55:30;99648.66;;;29.82;100.00
10921;BME280;5513;50.580;8.818;2023-08-21T08:58:18;99641.94;;;30.11;100.00
10921;BME280;5513;50.580;8.818;2023-08-21T09:01:04;99644.63;;;30.25;100.00
10921;BME280;5513;50.580;8.818;2023-08-21T09:03:51;99645.06;;;29.69;100.00
10921;BME280;5513;50.580;8.818;2023-08-21T09:06:38;99642.91;;;30.30;100.00
10921;BME280;5513;50.580;8.818;2023-08-21T09:09:25;99639.31;;;30.36;100.00
10921;BME280;5513;50.580;8.818;2023-08-21T09:12:14;99640.00;;;30.25;100.00
10921;BME280;5513;50.580;8.818;2023-08-21T09:15:06;99640.56;;;30.47;100.00
10921;BME280;5513;50.580;8.818;2023-08-21T09:17:54;99636.63;;;30.88;100.00
10921;BME280;5513;50.580;8.818;2023-08-21T09:20:41;99636.47;;;31.14;100.00
10921;BME280;5513;50.580;8.818;2023-08-21T09:23:29;99628.63;;;30.28;100.00
10921;BME280;5513;50.580;8.818;2023-08-21T09:26:19;99637.13;;;30.71;100.00
10921;BME280;5513;50.580;8.818;2023-08-21T09:29:06;99631.44;;;30.80;100.00
10921;BME280;5513;50.580;8.818;2023-08-21T09:31:57;99635.47;;;30.57;100.00
10921;BME280;5513;50.580;8.818;2023-08-21T09:34:44;99633.94;;;30.81;100.00
10921;BME280;5513;50.580;8.818;2023-08-21T09:37:31;99634.19;;;31.11;100.00
10921;BME280;5513;50.580;8.818;2023-08-21T09:40:18;99633.06;;;31.57;100.00
10921;BME280;5513;50.580;8.818;2023-08-21T09:43:05;99629.84;;;31.67;98.33
10921;BME280;5513;50.580;8.818;2023-08-21T09:45:53;99623.44;;;31.73;98.97
10921;BME280;5513;50.580;8.818;2023-08-21T09:48:43;99624.63;;;32.08;91.63
10921;BME280;5513;50.580;8.818;2023-08-21T09:51:31;99622.97;;;32.26;91.17
10921;BME280;5513;50.580;8.818;2023-08-21T09:54:18;99630.94;;;32.34;87.73
10921;BME280;5513;50.580;8.818;2023-08-21T09:57:05;99631.44;;;32.61;85.70
10921;BME280;5513;50.580;8.818;2023-08-21T09:59:53;99621.28;;;32.61;85.05
10921;BME280;5513;50.580;8.818;2023-08-21T10:02:41;99626.22;;;32.71;86.10
10921;BME280;5513;50.580;8.818;2023-08-21T10:05:30;99616.16;;;32.10;86.74
10921;BME280;5513;50.580;8.818;2023-08-21T10:08:24;99614.31;;;32.47;84.59
10921;BME280;5513;50.580;8.818;2023-08-21T10:11:11;99611.56;;;33.25;85.67
10921;BME280;5513;50.580;8.818;2023-08-21T10:14:00;99614.75;;;33.52;83.81
10921;BME280;5513;50.580;8.818;2023-08-21T10:16:47;99610.25;;;33.70;80.22
10921;BME280;5513;50.580;8.818;2023-08-21T10:19:35;99610.09;;;33.41;79.83
10921;BME280;5513;50.580;8.818;2023-08-21T10:22:43;99614.69;;;34.06;79.44
10921;BME280;5513;50.580;8.818;2023-08-21T10:25:30;99614.53;;;33.66;78.02
10921;BME280;5513;50.580;8.818;2023-08-21T10:28:17;99612.94;;;33.88;77.40
10921;BME280;5513;50.580;8.818;2023-08-21T10:31:25;99611.28;;;34.62;77.98
10921;BME280;5513;50.580;8.818;2023-08-21T10:34:13;99608.56;;;33.15;82.45
10921;BME280;5513;50.580;8.818;2023-08-21T10:37:04;99606.81;;;34.09;72.57
10921;BME280;5513;50.580;8.818;2023-08-21T10:39:56;99612.91;;;34.47;71.84
10921;BME280;5513;50.580;8.818;2023-08-21T10:42:43;99605.72;;;34.74;72.98
10921;BME280;5513;50.580;8.818;2023-08-21T10:45:30;99593.81;;;36.48;63.42
10921;BME280;5513;50.580;8.818;2023-08-21T10:48:17;99603.50;;;37.53;56.28
10921;BME280;5513;50.580;8.818;2023-08-21T10:51:06;99599.94;;;39.10;48.59
10921;BME280;5513;50.580;8.818;2023-08-21T10:53:54;99594.38;;;41.99;37.92
10921;BME280;5513;50.580;8.818;2023-08-21T10:56:42;99597.63;;;42.60;34.83
10921;BME280;5513;50.580;8.818;2023-08-21T10:59:29;99598.28;;;43.97;35.49
10921;BME280;5513;50.580;8.818;2023-08-21T11:02:16;99588.25;;;43.96;34.13
10921;BME280;5513;50.580;8.818;2023-08-21T11:05:04;99597.75;;;43.95;32.76
10921;BME280;5513;50.580;8.818;2023-08-21T11:07:51;99589.59;;;42.77;33.22
10921;BME280;5513;50.580;8.818;2023-08-21T11:10:37;99596.25;;;42.09;34.42
10921;BME280;5513;50.580;8.818;2023-08-21T11:13:26;99587.94;;;43.13;32.16
10921;BME280;5513;50.580;8.818;2023-08-21T11:16:12;99588.25;;;45.51;28.25
10921;BME280;5513;50.580;8.818;2023-08-21T11:19:03;99591.03;;;45.51;28.89
10921;BME280;5513;50.580;8.818;2023-08-21T11:21:50;99586.22;;;46.36;26.88
10921;BME280;5513;50.580;8.818;2023-08-21T11:24:43;99589.19;;;46.00;28.28
10921;BME280;5513;50.580;8.818;2023-08-21T11:27:30;99594.47;;;47.06;27.61
10921;BME280;5513;50.580;8.818;2023-08-21T11:30:19;99588.94;;;47.88;26.57
10921;BME280;5513;50.580;8.818;2023-08-21T11:33:06;99588.66;;;48.19;26.64
10921;BME280;5513;50.580;8.818;2023-08-21T11:35:53;99584.41;;;48.42;25.89
10921;BME280;5513;50.580;8.818;2023-08-21T11:38:42;99586.78;;;47.85;24.37
10921;BME280;5513;50.580;8.818;2023-08-21T11:41:53;99579.63;;;47.23;25.10
10921;BME280;5513;50.580;8.818;2023-08-21T11:44:45;99587.25;;;50.13;22.45
10921;BME280;5513;50.580;8.818;2023-08-21T11:47:34;99580.84;;;45.77;25.50
10921;BME280;5513;50.580;8.818;2023-08-21T11:50:22;99574.84;;;47.32;25.19
10921;BME280;5513;50.580;8.818;2023-08-21T11:53:09;99581.88;;;46.78;25.77
10921;BME280;5513;50.580;8.818;2023-08-21T11:55:56;99575.97;;;46.88;25.51
10921;BME280;5513;50.580;8.818;2023-08-21T11:58:45;99575.66;;;46.41;25.49
10921;BME280;5513;50.580;8.818;2023-08-21T12:01:33;99562.66;;;45.97;26.78
10921;BME280;5513;50.580;8.818;2023-08-21T12:04:22;99567.69;;;47.52;24.49
10921;BME280;5513;50.580;8.818;2023-08-21T12:07:08;99569.72;;;49.29;24.13
10921;BME280;5513;50.580;8.818;2023-08-21T12:09:55;99564.34;;;46.46;25.42
10921;BME280;5513;50.580;8.818;2023-08-21T12:12:42;99571.78;;;47.72;25.62
10921;BME280;5513;50.580;8.818;2023-08-21T12:15:29;99556.69;;;47.21;24.87
10921;BME280;5513;50.580;8.818;2023-08-21T12:18:16;99552.78;;;47.78;24.78
10921;BME280;5513;50.580;8.818;2023-08-21T12:21:04;99554.03;;;46.16;26.88
10921;BME280;5513;50.580;8.818;2023-08-21T12:23:53;99550.75;;;46.31;27.25
10921;BME280;5513;50.580;8.818;2023-08-21T12:26:40;99546.88;;;47.45;25.37
10921;BME280;5513;50.580;8.818;2023-08-21T12:29:35;99545.44;;;44.56;27.58
10921;BME280;5513;50.580;8.818;2023-08-21T12:32:22;99537.94;;;45.99;26.95
10921;BME280;5513;50.580;8.818;2023-08-21T12:35:09;99540.13;;;45.71;27.20
10921;BME280;5513;50.580;8.818;2023-08-21T12:37:58;99535.25;;;45.63;28.69
10921;BME280;5513;50.580;8.818;2023-08-21T12:40:50;99539.81;;;48.32;25.88
10921;BME280;5513;50.580;8.818;2023-08-21T12:43:37;99536.88;;;49.00;25.55
10921;BME280;5513;50.580;8.818;2023-08-21T12:46:24;99527.75;;;46.60;27.44
10921;BME280;5513;50.580;8.818;2023-08-21T12:49:11;99533.88;;;45.52;29.66
10921;BME280;5513;50.580;8.818;2023-08-21T12:51:58;99525.00;;;47.76;27.73
10921;BME280;5513;50.580;8.818;2023-08-21T12:54:47;99534.22;;;47.04;27.33
10921;BME280;5513;50.580;8.818;2023-08-21T12:57:34;99526.44;;;47.10;27.58
10921;BME280;5513;50.580;8.818;2023-08-21T13:00:21;99515.69;;;47.29;27.01
10921;BME280;5513;50.580;8.818;2023-08-21T13:03:08;99521.19;;;44.87;29.79
10921;BME280;5513;50.580;8.818;2023-08-21T13:05:55;99520.19;;;46.12;28.58
10921;BME280;5513;50.580;8.818;2023-08-21T13:08:42;99507.66;;;47.01;27.45
10921;BME280;5513;50.580;8.818;2023-08-21T13:11:30;99513.16;;;47.71;26.21
10921;BME280;5513;50.580;8.818;2023-08-21T13:14:17;99508.84;;;47.73;26.17
10921;BME280;5513;50.580;8.818;2023-08-21T13:17:04;99502.81;;;48.51;24.95
10921;BME280;5513;50.580;8.818;2023-08-21T13:19:51;99502.19;;;48.16;25.88
10921;BME280;5513;50.580;8.818;2023-08-21T13:22:45;99498.38;;;47.18;26.16
10921;BME280;5513;50.580;8.818;2023-08-21T13:25:32;99507.66;;;46.84;27.37
10921;BME280;5513;50.580;8.818;2023-08-21T13:28:20;99504.44;;;46.34;27.65
10921;BME280;5513;50.580;8.818;2023-08-21T13:31:07;99496.44;;;47.01;26.98
10921;BME280;5513;50.580;8.818;2023-08-21T13:33:55;99501.22;;;47.74;26.38
10921;BME280;5513;50.580;8.818;2023-08-21T13:36:41;99500.59;;;47.68;25.97
10921;BME280;5513;50.580;8.818;2023-08-21T13:39:29;99492.59;;;47.32;25.19
10921;BME280;5513;50.580;8.818;2023-08-21T13:42:16;99499.88;;;44.91;28.81
10921;BME280;5513;50.580;8.818;2023-08-21T13:45:05;99492.84;;;43.29;29.02
10921;BME280;5513;50.580;8.818;2023-08-21T13:47:52;99494.31;;;44.91;27.91
10921;BME280;5513;50.580;8.818;2023-08-21T13:50:39;99490.34;;;44.56;27.56
10921;BME280;5513;50.580;8.818;2023-08-21T13:53:26;99486.53;;;43.69;28.30
10921;BME280;5513;50.580;8.818;2023-08-21T13:56:13;99481.97;;;41.08;31.88
10921;BME280;5513;50.580;8.818;2023-08-21T13:59:01;99475.75;;;38.82;37.18
10921;BME280;5513;50.580;8.818;2023-08-21T14:01:48;99475.97;;;38.65;36.55
10921;BME280;5513;50.580;8.818;2023-08-21T14:04:35;99477.47;;;37.63;39.59
10921;BME280;5513;50.580;8.818;2023-08-21T14:07:22;99466.13;;;40.70;35.44
10921;BME280;5513;50.580;8.818;2023-08-21T14:10:09;99461.97;;;41.06;34.56
10921;BME280;5513;50.580;8.818;2023-08-21T14:12:57;99454.91;;;44.15;30.44
10921;BME280;5513;50.580;8.818;2023-08-21T14:15:44;99444.38;;;44.85;28.53
10921;BME280;5513;50.580;8.818;2023-08-21T14:18:33;99442.28;;;45.44;28.07
10921;BME280;5513;50.580;8.818;2023-08-21T14:21:20;99439.38;;;45.97;28.23
10921;BME280;5513;50.580;8.818;2023-08-21T14:24:07;99448.41;;;46.77;26.47
10921;BME280;5513;50.580;8.818;2023-08-21T14:26:54;99441.41;;;45.65;27.67
10921;BME280;5513;50.580;8.818;2023-08-21T14:29:42;99444.88;;;44.64;28.96
10921;BME280;5513;50.580;8.818;2023-08-21T14:32:31;99437.84;;;45.43;28.48
10921;BME280;5513;50.580;8.818;2023-08-21T14:35:23;99438.59;;;48.32;25.86
10921;BME280;5513;50.580;8.818;2023-08-21T14:38:10;99432.38;;;46.17;27.42
10921;BME280;5513;50.580;8.818;2023-08-21T14:40:58;99441.31;;;46.45;27.21
10921;BME280;5513;50.580;8.818;2023-08-21T14:43:45;99441.97;;;46.59;27.21
10921;BME280;5513;50.580;8.818;2023-08-21T14:46:31;99428.72;;;46.08;28.09
10921;BME280;5513;50.580;8.818;2023-08-21T14:49:27;99423.69;;;45.17;28.03
10921;BME280;5513;50.580;8.818;2023-08-21T14:52:16;99421.09;;;44.75;28.36
10921;BME280;5513;50.580;8.818;2023-08-21T14:55:03;99416.91;;;44.28;28.97